HTML - FORMULARIO BUSCAR Y VOLCAR

   
Vista:

FORMULARIO BUSCAR Y VOLCAR

Publicado por esteban (2 intervenciones) el 02/06/2013 13:01:41
la pregunta es si yo quiero un form



que yo introduzca x valores ej gclp gcrr y lo busque en
http://weather.noaa.gov/pub/data/observations/metar/stations/.....TXT
http://weather.noaa.gov/pub/data/forecasts/taf/stations/.....TXT

me los vuelque.

por ej

2013/05/05 19:00
GCLP 051900Z 02019KT 9999 FEW025 19/13 Q1019 NOSIG

2013/05/05 18:31
TAF GCLP 051700Z 0518/0618 01018KT CAVOK TX24/0614Z TN18/0606Z

si alguien me puede orientar y ayudar
Valora esta pregunta
Me gusta: Está pregunta es útil y esta claraNo me gusta: Está pregunta no esta clara o no es útil
0
Responder
Imágen de perfil de xve

FORMULARIO BUSCAR Y VOLCAR

Publicado por xve (1178 intervenciones) el 02/06/2013 21:13:47
Hola Esteban, para ello, necesitas algún lenguaje de programación que se ejecute en el servidor... cual estas utilizando?
Valora esta respuesta
Me gusta: Está respuesta es útil y esta claraNo me gusta: Está respuesta no esta clara o no es útil
0
Comentar

FORMULARIO BUSCAR Y VOLCAR

Publicado por esteban (2 intervenciones) el 03/06/2013 10:47:21
me gustaría atrevas de script. seria en local
Valora esta respuesta
Me gusta: Está respuesta es útil y esta claraNo me gusta: Está respuesta no esta clara o no es útil
0
Comentar